sensor_id;sensor_type;location;lat;lon;timestamp;temperature;humidity
45066;DHT22;30830;53.704;10.004;2023-06-04T00:02:02;10.70;99.90
45066;DHT22;30830;53.704;10.004;2023-06-04T00:04:28;10.70;99.90
45066;DHT22;30830;53.704;10.004;2023-06-04T00:06:54;10.60;99.90
45066;DHT22;30830;53.704;10.004;2023-06-04T00:09:19;10.60;99.90
45066;DHT22;30830;53.704;10.004;2023-06-04T00:11:45;10.50;99.90
45066;DHT22;30830;53.704;10.004;2023-06-04T00:14:11;10.50;99.90
45066;DHT22;30830;53.704;10.004;2023-06-04T00:16:37;10.50;99.90
45066;DHT22;30830;53.704;10.004;2023-06-04T00:19:03;10.40;99.90
45066;DHT22;30830;53.704;10.004;2023-06-04T00:21:28;10.40;99.90
45066;DHT22;30830;53.704;10.004;2023-06-04T00:23:54;10.30;99.90
45066;DHT22;30830;53.704;10.004;2023-06-04T00:26:20;10.30;99.90
45066;DHT22;30830;53.704;10.004;2023-06-04T00:28:45;10.20;99.90
45066;DHT22;30830;53.704;10.004;2023-06-04T00:31:11;10.20;99.90
45066;DHT22;30830;53.704;10.004;2023-06-04T00:33:38;10.10;99.90
45066;DHT22;30830;53.704;10.004;2023-06-04T00:36:04;10.10;99.90
45066;DHT22;30830;53.704;10.004;2023-06-04T00:38:30;10.00;99.90
45066;DHT22;30830;53.704;10.004;2023-06-04T00:40:56;10.00;99.90
45066;DHT22;30830;53.704;10.004;2023-06-04T00:43:21;10.00;99.90
45066;DHT22;30830;53.704;10.004;2023-06-04T00:45:51;9.90;99.90
45066;DHT22;30830;53.704;10.004;2023-06-04T00:48:17;9.90;99.90
45066;DHT22;30830;53.704;10.004;2023-06-04T00:50:43;9.80;99.90
45066;DHT22;30830;53.704;10.004;2023-06-04T00:53:09;9.80;99.90
45066;DHT22;30830;53.704;10.004;2023-06-04T00:55:36;9.80;99.90
45066;DHT22;30830;53.704;10.004;2023-06-04T00:58:02;9.70;99.90
45066;DHT22;30830;53.704;10.004;2023-06-04T01:00:30;9.70;99.90
45066;DHT22;30830;53.704;10.004;2023-06-04T01:02:57;9.60;99.90
45066;DHT22;30830;53.704;10.004;2023-06-04T01:07:59;9.60;99.90
45066;DHT22;30830;53.704;10.004;2023-06-04T01:10:25;9.50;99.90
45066;DHT22;30830;53.704;10.004;2023-06-04T01:12:51;9.50;99.90
45066;DHT22;30830;53.704;10.004;2023-06-04T01:15:16;9.50;99.90
45066;DHT22;30830;53.704;10.004;2023-06-04T01:17:48;9.40;99.90
45066;DHT22;30830;53.704;10.004;2023-06-04T01:25:37;9.20;99.90
45066;DHT22;30830;53.704;10.004;2023-06-04T01:28:08;9.20;99.90
45066;DHT22;30830;53.704;10.004;2023-06-04T01:30:37;9.20;99.90
45066;DHT22;30830;53.704;10.004;2023-06-04T01:33:09;9.10;99.90
45066;DHT22;30830;53.704;10.004;2023-06-04T01:35:35;9.10;99.90
45066;DHT22;30830;53.704;10.004;2023-06-04T01:38:01;9.00;99.90
45066;DHT22;30830;53.704;10.004;2023-06-04T01:40:27;9.00;99.90
45066;DHT22;30830;53.704;10.004;2023-06-04T01:42:53;9.00;99.90
45066;DHT22;30830;53.704;10.004;2023-06-04T01:45:22;8.90;99.90
45066;DHT22;30830;53.704;10.004;2023-06-04T01:47:48;8.80;99.90
45066;DHT22;30830;53.704;10.004;2023-06-04T01:50:13;8.80;99.90
45066;DHT22;30830;53.704;10.004;2023-06-04T01:52:40;8.80;99.90
45066;DHT22;30830;53.704;10.004;2023-06-04T01:55:08;8.70;99.90
45066;DHT22;30830;53.704;10.004;2023-06-04T01:57:34;8.70;99.90
45066;DHT22;30830;53.704;10.004;2023-06-04T02:00:01;8.70;99.90
45066;DHT22;30830;53.704;10.004;2023-06-04T02:02:27;8.60;99.90
45066;DHT22;30830;53.704;10.004;2023-06-04T02:04:52;8.60;99.90
45066;DHT22;30830;53.704;10.004;2023-06-04T02:07:19;8.60;99.90
45066;DHT22;30830;53.704;10.004;2023-06-04T02:09:48;8.60;99.90
45066;DHT22;30830;53.704;10.004;2023-06-04T02:12:16;8.60;99.90
45066;DHT22;30830;53.704;10.004;2023-06-04T02:14:42;8.50;99.90
45066;DHT22;30830;53.704;10.004;2023-06-04T02:17:08;8.50;99.90
45066;DHT22;30830;53.704;10.004;2023-06-04T02:19:43;8.50;99.90
45066;DHT22;30830;53.704;10.004;2023-06-04T02:22:17;8.40;99.90
45066;DHT22;30830;53.704;10.004;2023-06-04T02:24:42;8.40;99.90
45066;DHT22;30830;53.704;10.004;2023-06-04T02:27:09;8.40;99.90
45066;DHT22;30830;53.704;10.004;2023-06-04T02:29:34;8.30;99.90
45066;DHT22;30830;53.704;10.004;2023-06-04T02:32:01;8.30;99.90
45066;DHT22;30830;53.704;10.004;2023-06-04T02:34:26;8.30;99.90
45066;DHT22;30830;53.704;10.004;2023-06-04T02:36:52;8.30;99.90
45066;DHT22;30830;53.704;10.004;2023-06-04T02:39:19;8.30;99.90
45066;DHT22;30830;53.704;10.004;2023-06-04T02:41:44;8.20;99.90
45066;DHT22;30830;53.704;10.004;2023-06-04T02:44:10;8.20;99.90
45066;DHT22;30830;53.704;10.004;2023-06-04T02:46:37;8.20;99.90
45066;DHT22;30830;53.704;10.004;2023-06-04T02:49:02;8.20;99.90
45066;DHT22;30830;53.704;10.004;2023-06-04T02:51:28;8.20;99.90
45066;DHT22;30830;53.704;10.004;2023-06-04T02:53:54;8.20;99.90
45066;DHT22;30830;53.704;10.004;2023-06-04T02:56:20;8.20;99.90
45066;DHT22;30830;53.704;10.004;2023-06-04T02:58:53;8.10;99.90
45066;DHT22;30830;53.704;10.004;2023-06-04T03:01:24;8.10;99.90
45066;DHT22;30830;53.704;10.004;2023-06-04T03:03:50;8.10;99.90
45066;DHT22;30830;53.704;10.004;2023-06-04T03:06:17;8.10;99.90
45066;DHT22;30830;53.704;10.004;2023-06-04T03:08:43;8.00;99.90
45066;DHT22;30830;53.704;10.004;2023-06-04T03:11:09;8.00;99.90
45066;DHT22;30830;53.704;10.004;2023-06-04T03:13:35;8.00;99.90
45066;DHT22;30830;53.704;10.004;2023-06-04T03:16:01;8.00;99.90
45066;DHT22;30830;53.704;10.004;2023-06-04T03:18:28;8.00;99.90
45066;DHT22;30830;53.704;10.004;2023-06-04T03:20:54;8.00;99.90
45066;DHT22;30830;53.704;10.004;2023-06-04T03:23:20;8.00;99.90
45066;DHT22;30830;53.704;10.004;2023-06-04T03:25:46;8.00;99.90
45066;DHT22;30830;53.704;10.004;2023-06-04T03:28:12;8.00;99.90
45066;DHT22;30830;53.704;10.004;2023-06-04T03:30:39;8.00;99.90
45066;DHT22;30830;53.704;10.004;2023-06-04T03:33:04;8.00;99.90
45066;DHT22;30830;53.704;10.004;2023-06-04T03:35:30;8.00;99.90
45066;DHT22;30830;53.704;10.004;2023-06-04T03:37:55;8.00;99.90
45066;DHT22;30830;53.704;10.004;2023-06-04T03:40:21;8.00;99.90
45066;DHT22;30830;53.704;10.004;2023-06-04T03:42:47;8.00;99.90
45066;DHT22;30830;53.704;10.004;2023-06-04T03:45:12;8.00;99.90
45066;DHT22;30830;53.704;10.004;2023-06-04T03:47:38;8.00;99.90
45066;DHT22;30830;53.704;10.004;2023-06-04T03:50:05;8.00;99.90
45066;DHT22;30830;53.704;10.004;2023-06-04T03:52:31;8.00;99.90
45066;DHT22;30830;53.704;10.004;2023-06-04T03:54:57;8.00;99.90
45066;DHT22;30830;53.704;10.004;2023-06-04T03:57:22;8.00;99.90
45066;DHT22;30830;53.704;10.004;2023-06-04T03:59:48;8.00;99.90
45066;DHT22;30830;53.704;10.004;2023-06-04T04:02:14;8.10;99.90
45066;DHT22;30830;53.704;10.004;2023-06-04T04:04:40;8.10;99.90
45066;DHT22;30830;53.704;10.004;2023-06-04T04:07:05;8.10;99.90
45066;DHT22;30830;53.704;10.004;2023-06-04T04:09:31;8.20;99.90
45066;DHT22;30830;53.704;10.004;2023-06-04T04:11:56;8.20;99.90
45066;DHT22;30830;53.704;10.004;2023-06-04T04:14:22;8.30;99.90
45066;DHT22;30830;53.704;10.004;2023-06-04T04:16:48;8.30;99.90
45066;DHT22;30830;53.704;10.004;2023-06-04T04:19:13;8.40;99.90
45066;DHT22;30830;53.704;10.004;2023-06-04T04:21:39;8.40;99.90
45066;DHT22;30830;53.704;10.004;2023-06-04T04:24:05;8.40;99.90
45066;DHT22;30830;53.704;10.004;2023-06-04T04:26:30;8.50;99.90
45066;DHT22;30830;53.704;10.004;2023-06-04T04:28:56;8.50;99.90
45066;DHT22;30830;53.704;10.004;2023-06-04T04:31:29;8.60;99.90
45066;DHT22;30830;53.704;10.004;2023-06-04T04:33:56;8.70;99.90
45066;DHT22;30830;53.704;10.004;2023-06-04T04:36:21;8.80;99.90
45066;DHT22;30830;53.704;10.004;2023-06-04T04:38:47;8.80;99.90
45066;DHT22;30830;53.704;10.004;2023-06-04T04:41:20;8.80;99.90
45066;DHT22;30830;53.704;10.004;2023-06-04T04:43:46;9.00;99.90
45066;DHT22;30830;53.704;10.004;2023-06-04T04:46:12;9.00;99.90
45066;DHT22;30830;53.704;10.004;2023-06-04T04:48:37;9.00;99.90
45066;DHT22;30830;53.704;10.004;2023-06-04T04:51:04;9.10;99.90
45066;DHT22;30830;53.704;10.004;2023-06-04T04:53:29;9.20;99.90
45066;DHT22;30830;53.704;10.004;2023-06-04T04:55:55;9.30;99.90
45066;DHT22;30830;53.704;10.004;2023-06-04T04:58:20;9.30;99.90
45066;DHT22;30830;53.704;10.004;2023-06-04T05:00:46;9.40;99.90
45066;DHT22;30830;53.704;10.004;2023-06-04T05:03:13;9.50;99.90
45066;DHT22;30830;53.704;10.004;2023-06-04T05:05:39;9.60;99.90
45066;DHT22;30830;53.704;10.004;2023-06-04T05:08:05;9.60;99.90
45066;DHT22;30830;53.704;10.004;2023-06-04T05:10:30;9.70;99.90
45066;DHT22;30830;53.704;10.004;2023-06-04T05:13:00;9.80;99.90
45066;DHT22;30830;53.704;10.004;2023-06-04T05:15:30;9.90;99.90
45066;DHT22;30830;53.704;10.004;2023-06-04T05:17:55;10.00;99.90
45066;DHT22;30830;53.704;10.004;2023-06-04T05:20:22;10.00;99.90
45066;DHT22;30830;53.704;10.004;2023-06-04T05:22:48;10.10;99.90
45066;DHT22;30830;53.704;10.004;2023-06-04T05:25:14;10.20;99.90
45066;DHT22;30830;53.704;10.004;2023-06-04T05:27:40;10.30;99.90
45066;DHT22;30830;53.704;10.004;2023-06-04T05:30:06;10.30;99.90
45066;DHT22;30830;53.704;10.004;2023-06-04T05:32:32;10.40;99.90
45066;DHT22;30830;53.704;10.004;2023-06-04T05:34:59;10.50;99.90
45066;DHT22;30830;53.704;10.004;2023-06-04T05:37:25;10.70;99.90
45066;DHT22;30830;53.704;10.004;2023-06-04T05:39:55;10.80;99.90
45066;DHT22;30830;53.704;10.004;2023-06-04T05:42:22;11.00;99.90
45066;DHT22;30830;53.704;10.004;2023-06-04T05:44:48;11.10;99.90
45066;DHT22;30830;53.704;10.004;2023-06-04T05:47:15;11.30;99.90
45066;DHT22;30830;53.704;10.004;2023-06-04T05:49:40;11.50;99.90
45066;DHT22;30830;53.704;10.004;2023-06-04T05:52:06;11.70;99.90
45066;DHT22;30830;53.704;10.004;2023-06-04T05:54:31;11.80;99.90
45066;DHT22;30830;53.704;10.004;2023-06-04T05:56:58;12.00;99.90
45066;DHT22;30830;53.704;10.004;2023-06-04T05:59:23;12.10;99.90
45066;DHT22;30830;53.704;10.004;2023-06-04T06:01:50;12.30;99.90
45066;DHT22;30830;53.704;10.004;2023-06-04T06:04:15;12.40;99.90
45066;DHT22;30830;53.704;10.004;2023-06-04T06:06:42;12.60;99.90
45066;DHT22;30830;53.704;10.004;2023-06-04T06:09:12;12.70;99.90
45066;DHT22;30830;53.704;10.004;2023-06-04T06:11:38;12.80;99.90
45066;DHT22;30830;53.704;10.004;2023-06-04T06:14:03;13.00;99.90
45066;DHT22;30830;53.704;10.004;2023-06-04T06:16:29;13.10;99.90
45066;DHT22;30830;53.704;10.004;2023-06-04T06:18:55;13.20;99.90
45066;DHT22;30830;53.704;10.004;2023-06-04T06:21:21;13.40;99.90
45066;DHT22;30830;53.704;10.004;2023-06-04T06:23:46;13.40;99.90
45066;DHT22;30830;53.704;10.004;2023-06-04T06:26:12;13.50;99.90
45066;DHT22;30830;53.704;10.004;2023-06-04T06:28:38;13.80;99.90
45066;DHT22;30830;53.704;10.004;2023-06-04T06:31:03;13.90;99.90
45066;DHT22;30830;53.704;10.004;2023-06-04T06:33:29;14.20;99.90
45066;DHT22;30830;53.704;10.004;2023-06-04T06:35:57;14.30;99.90
45066;DHT22;30830;53.704;10.004;2023-06-04T06:38:25;14.50;99.90
45066;DHT22;30830;53.704;10.004;2023-06-04T06:40:52;14.70;99.90
45066;DHT22;30830;53.704;10.004;2023-06-04T06:43:17;14.70;99.90
45066;DHT22;30830;53.704;10.004;2023-06-04T06:45:43;14.90;99.90
45066;DHT22;30830;53.704;10.004;2023-06-04T06:48:08;15.00;99.90
45066;DHT22;30830;53.704;10.004;2023-06-04T06:50:34;15.10;99.90
45066;DHT22;30830;53.704;10.004;2023-06-04T06:53:03;15.20;99.90
45066;DHT22;30830;53.704;10.004;2023-06-04T06:55:28;15.40;99.90
45066;DHT22;30830;53.704;10.004;2023-06-04T06:57:54;15.70;99.90
45066;DHT22;30830;53.704;10.004;2023-06-04T07:00:20;15.60;99.80
45066;DHT22;30830;53.704;10.004;2023-06-04T07:02:45;15.70;99.90
45066;DHT22;30830;53.704;10.004;2023-06-04T07:05:11;15.80;99.70
45066;DHT22;30830;53.704;10.004;2023-06-04T07:07:37;15.80;99.90
45066;DHT22;30830;53.704;10.004;2023-06-04T07:10:02;15.70;98.80
45066;DHT22;30830;53.704;10.004;2023-06-04T07:12:29;15.70;99.90
45066;DHT22;30830;53.704;10.004;2023-06-04T07:14:55;15.90;98.60
45066;DHT22;30830;53.704;10.004;2023-06-04T07:17:21;16.00;99.90
45066;DHT22;30830;53.704;10.004;2023-06-04T07:19:47;16.10;98.70
45066;DHT22;30830;53.704;10.004;2023-06-04T07:22:13;16.10;98.00
45066;DHT22;30830;53.704;10.004;2023-06-04T07:24:41;16.20;99.70
45066;DHT22;30830;53.704;10.004;2023-06-04T07:27:14;16.50;99.80
45066;DHT22;30830;53.704;10.004;2023-06-04T07:29:40;16.80;98.20
45066;DHT22;30830;53.704;10.004;2023-06-04T07:32:08;17.00;97.20
45066;DHT22;30830;53.704;10.004;2023-06-04T07:34:33;16.90;95.30
45066;DHT22;30830;53.704;10.004;2023-06-04T07:36:59;17.00;97.00
45066;DHT22;30830;53.704;10.004;2023-06-04T07:39:24;17.30;97.30
45066;DHT22;30830;53.704;10.004;2023-06-04T07:41:50;17.50;95.40
45066;DHT22;30830;53.704;10.004;2023-06-04T07:44:16;17.80;95.40
45066;DHT22;30830;53.704;10.004;2023-06-04T07:46:41;17.90;93.80
45066;DHT22;30830;53.704;10.004;2023-06-04T07:49:08;17.90;93.70
45066;DHT22;30830;53.704;10.004;2023-06-04T07:51:33;18.00;93.90
45066;DHT22;30830;53.704;10.004;2023-06-04T07:54:00;18.30;92.60
45066;DHT22;30830;53.704;10.004;2023-06-04T07:56:26;18.40;91.30
45066;DHT22;30830;53.704;10.004;2023-06-04T07:58:52;18.50;90.50
45066;DHT22;30830;53.704;10.004;2023-06-04T08:01:17;18.70;90.20
45066;DHT22;30830;53.704;10.004;2023-06-04T08:03:43;18.90;91.60
45066;DHT22;30830;53.704;10.004;2023-06-04T08:06:09;19.10;90.00
45066;DHT22;30830;53.704;10.004;2023-06-04T08:08:36;19.30;90.30
45066;DHT22;30830;53.704;10.004;2023-06-04T08:11:01;19.30;85.80
45066;DHT22;30830;53.704;10.004;2023-06-04T08:13:28;19.20;87.60
45066;DHT22;30830;53.704;10.004;2023-06-04T08:15:53;19.30;83.80
45066;DHT22;30830;53.704;10.004;2023-06-04T08:18:19;19.50;84.20
45066;DHT22;30830;53.704;10.004;2023-06-04T08:20:44;19.50;81.90
45066;DHT22;30830;53.704;10.004;2023-06-04T08:23:10;19.70;85.00
45066;DHT22;30830;53.704;10.004;2023-06-04T08:25:36;20.00;84.30
45066;DHT22;30830;53.704;10.004;2023-06-04T08:28:01;20.10;78.30
45066;DHT22;30830;53.704;10.004;2023-06-04T08:30:28;20.30;79.60
45066;DHT22;30830;53.704;10.004;2023-06-04T08:32:54;20.50;78.70
45066;DHT22;30830;53.704;10.004;2023-06-04T08:35:20;20.50;76.30
45066;DHT22;30830;53.704;10.004;2023-06-04T08:37:46;20.60;78.20
45066;DHT22;30830;53.704;10.004;2023-06-04T08:40:11;20.90;78.50
45066;DHT22;30830;53.704;10.004;2023-06-04T08:42:43;20.80;76.60
45066;DHT22;30830;53.704;10.004;2023-06-04T08:45:13;21.00;77.90
45066;DHT22;30830;53.704;10.004;2023-06-04T08:47:44;21.10;77.00
45066;DHT22;30830;53.704;10.004;2023-06-04T08:50:18;20.90;75.20
45066;DHT22;30830;53.704;10.004;2023-06-04T08:52:44;21.00;76.00
45066;DHT22;30830;53.704;10.004;2023-06-04T08:55:11;21.00;74.60
45066;DHT22;30830;53.704;10.004;2023-06-04T08:57:39;20.70;76.50
45066;DHT22;30830;53.704;10.004;2023-06-04T09:00:06;20.80;76.30
45066;DHT22;30830;53.704;10.004;2023-06-04T09:02:36;21.00;76.10
45066;DHT22;30830;53.704;10.004;2023-06-04T09:05:04;20.90;75.60
45066;DHT22;30830;53.704;10.004;2023-06-04T09:07:30;21.10;77.70
45066;DHT22;30830;53.704;10.004;2023-06-04T09:09:58;21.20;74.70
45066;DHT22;30830;53.704;10.004;2023-06-04T09:12:24;20.80;73.20
45066;DHT22;30830;53.704;10.004;2023-06-04T09:14:50;20.60;74.30
45066;DHT22;30830;53.704;10.004;2023-06-04T09:17:25;20.60;75.30
45066;DHT22;30830;53.704;10.004;2023-06-04T09:19:51;20.60;74.00
45066;DHT22;30830;53.704;10.004;2023-06-04T09:22:17;20.90;74.50
45066;DHT22;30830;53.704;10.004;2023-06-04T09:24:44;20.70;74.40
45066;DHT22;30830;53.704;10.004;2023-06-04T09:27:15;20.60;73.60
45066;DHT22;30830;53.704;10.004;2023-06-04T09:29:55;20.90;76.70
45066;DHT22;30830;53.704;10.004;2023-06-04T09:32:25;21.20;75.70
45066;DHT22;30830;53.704;10.004;2023-06-04T09:34:52;21.50;75.40
45066;DHT22;30830;53.704;10.004;2023-06-04T09:37:18;21.70;78.90
45066;DHT22;30830;53.704;10.004;2023-06-04T09:39:55;21.40;71.10
45066;DHT22;30830;53.704;10.004;2023-06-04T09:42:24;21.20;73.50
45066;DHT22;30830;53.704;10.004;2023-06-04T09:44:50;21.20;76.70
45066;DHT22;30830;53.704;10.004;2023-06-04T09:47:15;21.30;76.10
45066;DHT22;30830;53.704;10.004;2023-06-04T09:49:49;21.20;75.00
45066;DHT22;30830;53.704;10.004;2023-06-04T09:52:16;21.20;76.90
45066;DHT22;30830;53.704;10.004;2023-06-04T09:54:42;21.30;75.20
45066;DHT22;30830;53.704;10.004;2023-06-04T09:57:15;21.30;74.80
45066;DHT22;30830;53.704;10.004;2023-06-04T09:59:44;21.40;76.90
45066;DHT22;30830;53.704;10.004;2023-06-04T10:02:12;21.40;73.80
45066;DHT22;30830;53.704;10.004;2023-06-04T10:04:42;21.40;77.50
45066;DHT22;30830;53.704;10.004;2023-06-04T10:07:11;21.40;78.70
45066;DHT22;30830;53.704;10.004;2023-06-04T10:09:43;21.60;77.80
45066;DHT22;30830;53.704;10.004;2023-06-04T10:12:13;21.70;79.10
45066;DHT22;30830;53.704;10.004;2023-06-04T10:14:54;21.60;76.10
45066;DHT22;30830;53.704;10.004;2023-06-04T10:17:22;21.60;73.30
45066;DHT22;30830;53.704;10.004;2023-06-04T10:19:49;21.40;74.40
45066;DHT22;30830;53.704;10.004;2023-06-04T10:22:22;21.20;76.00
45066;DHT22;30830;53.704;10.004;2023-06-04T10:24:49;21.30;75.30
45066;DHT22;30830;53.704;10.004;2023-06-04T10:27:17;21.30;77.60
45066;DHT22;30830;53.704;10.004;2023-06-04T10:29:43;21.30;74.20
45066;DHT22;30830;53.704;10.004;2023-06-04T10:32:10;21.20;74.60
45066;DHT22;30830;53.704;10.004;2023-06-04T10:34:36;21.20;77.60
45066;DHT22;30830;53.704;10.004;2023-06-04T10:37:02;21.30;74.60
45066;DHT22;30830;53.704;10.004;2023-06-04T10:39:29;21.20;75.80
45066;DHT22;30830;53.704;10.004;2023-06-04T10:42:05;21.20;75.20
45066;DHT22;30830;53.704;10.004;2023-06-04T10:44:31;21.20;75.70
45066;DHT22;30830;53.704;10.004;2023-06-04T10:46:58;21.20;75.30
45066;DHT22;30830;53.704;10.004;2023-06-04T10:49:28;21.20;77.00
45066;DHT22;30830;53.704;10.004;2023-06-04T10:51:55;21.10;74.10
45066;DHT22;30830;53.704;10.004;2023-06-04T10:54:28;21.10;74.70
45066;DHT22;30830;53.704;10.004;2023-06-04T10:56:54;21.10;75.60
45066;DHT22;30830;53.704;10.004;2023-06-04T10:59:21;20.90;73.00
45066;DHT22;30830;53.704;10.004;2023-06-04T11:01:47;20.90;74.40
45066;DHT22;30830;53.704;10.004;2023-06-04T11:04:23;20.80;73.50
45066;DHT22;30830;53.704;10.004;2023-06-04T11:07:06;20.70;75.10
45066;DHT22;30830;53.704;10.004;2023-06-04T11:09:36;20.60;73.60
45066;DHT22;30830;53.704;10.004;2023-06-04T11:12:04;20.50;75.20
45066;DHT22;30830;53.704;10.004;2023-06-04T11:14:30;20.60;77.80
45066;DHT22;30830;53.704;10.004;2023-06-04T11:16:56;20.70;77.40
45066;DHT22;30830;53.704;10.004;2023-06-04T11:19:22;20.70;72.50
45066;DHT22;30830;53.704;10.004;2023-06-04T11:21:48;20.50;71.60
45066;DHT22;30830;53.704;10.004;2023-06-04T11:24:14;20.50;74.10
45066;DHT22;30830;53.704;10.004;2023-06-04T11:26:39;20.60;73.20
45066;DHT22;30830;53.704;10.004;2023-06-04T11:29:10;20.60;71.70
45066;DHT22;30830;53.704;10.004;2023-06-04T11:31:44;20.60;74.10
45066;DHT22;30830;53.704;10.004;2023-06-04T11:34:25;20.70;74.10
45066;DHT22;30830;53.704;10.004;2023-06-04T11:36:51;20.80;74.30
45066;DHT22;30830;53.704;10.004;2023-06-04T11:39:19;20.80;72.30
45066;DHT22;30830;53.704;10.004;2023-06-04T11:41:45;20.80;71.60
45066;DHT22;30830;53.704;10.004;2023-06-04T11:44:11;20.70;71.60
45066;DHT22;30830;53.704;10.004;2023-06-04T11:46:41;20.80;72.40
45066;DHT22;30830;53.704;10.004;2023-06-04T11:49:12;20.90;72.30
45066;DHT22;30830;53.704;10.004;2023-06-04T11:51:45;21.00;72.60
45066;DHT22;30830;53.704;10.004;2023-06-04T11:54:13;21.00;72.40
45066;DHT22;30830;53.704;10.004;2023-06-04T11:56:39;21.10;74.00
45066;DHT22;30830;53.704;10.004;2023-06-04T11:59:05;21.10;72.50
45066;DHT22;30830;53.704;10.004;2023-06-04T12:01:32;20.90;73.10
45066;DHT22;30830;53.704;10.004;2023-06-04T12:03:58;21.00;71.90
45066;DHT22;30830;53.704;10.004;2023-06-04T12:06:23;21.00;73.20
45066;DHT22;30830;53.704;10.004;2023-06-04T12:08:54;21.00;73.00
45066;DHT22;30830;53.704;10.004;2023-06-04T12:11:31;21.10;74.70
45066;DHT22;30830;53.704;10.004;2023-06-04T12:14:17;21.20;73.50
45066;DHT22;30830;53.704;10.004;2023-06-04T12:19:22;21.30;73.00
45066;DHT22;30830;53.704;10.004;2023-06-04T12:22:02;21.40;73.00
45066;DHT22;30830;53.704;10.004;2023-06-04T12:24:28;21.40;72.50
45066;DHT22;30830;53.704;10.004;2023-06-04T12:29:28;21.60;74.90
45066;DHT22;30830;53.704;10.004;2023-06-04T12:32:05;21.60;72.50
45066;DHT22;30830;53.704;10.004;2023-06-04T12:34:31;21.70;74.30
45066;DHT22;30830;53.704;10.004;2023-06-04T12:36:57;21.80;74.30
45066;DHT22;30830;53.704;10.004;2023-06-04T12:39:23;21.70;71.80
45066;DHT22;30830;53.704;10.004;2023-06-04T12:41:48;21.50;72.40
45066;DHT22;30830;53.704;10.004;2023-06-04T12:44:14;21.30;72.20
45066;DHT22;30830;53.704;10.004;2023-06-04T12:46:40;21.40;74.40
45066;DHT22;30830;53.704;10.004;2023-06-04T12:49:05;21.60;73.60
45066;DHT22;30830;53.704;10.004;2023-06-04T12:51:31;21.70;75.50
45066;DHT22;30830;53.704;10.004;2023-06-04T12:53:57;21.80;74.30
45066;DHT22;30830;53.704;10.004;2023-06-04T12:56:23;21.90;72.70
45066;DHT22;30830;53.704;10.004;2023-06-04T12:58:49;22.00;74.90
45066;DHT22;30830;53.704;10.004;2023-06-04T13:01:15;22.10;72.50
45066;DHT22;30830;53.704;10.004;2023-06-04T13:03:40;22.10;73.10
45066;DHT22;30830;53.704;10.004;2023-06-04T13:06:06;22.00;72.50
45066;DHT22;30830;53.704;10.004;2023-06-04T13:08:33;22.00;73.60
45066;DHT22;30830;53.704;10.004;2023-06-04T13:10:59;22.20;73.10
45066;DHT22;30830;53.704;10.004;2023-06-04T13:13:25;22.40;73.00
45066;DHT22;30830;53.704;10.004;2023-06-04T13:15:50;22.40;73.90
45066;DHT22;30830;53.704;10.004;2023-06-04T13:18:16;22.50;70.90
45066;DHT22;30830;53.704;10.004;2023-06-04T13:20:42;22.30;71.90
45066;DHT22;30830;53.704;10.004;2023-06-04T13:23:08;22.10;72.50
45066;DHT22;30830;53.704;10.004;2023-06-04T13:25:33;22.20;73.70
45066;DHT22;30830;53.704;10.004;2023-06-04T13:28:03;22.30;72.40
45066;DHT22;30830;53.704;10.004;2023-06-04T13:30:28;22.40;71.90
45066;DHT22;30830;53.704;10.004;2023-06-04T13:32:54;22.30;71.10
45066;DHT22;30830;53.704;10.004;2023-06-04T13:35:20;22.40;72.30
45066;DHT22;30830;53.704;10.004;2023-06-04T13:37:45;22.30;73.20
45066;DHT22;30830;53.704;10.004;2023-06-04T13:40:11;22.40;71.70
45066;DHT22;30830;53.704;10.004;2023-06-04T13:42:37;22.50;73.80
45066;DHT22;30830;53.704;10.004;2023-06-04T13:45:03;22.70;72.80
45066;DHT22;30830;53.704;10.004;2023-06-04T13:47:28;22.80;73.30
45066;DHT22;30830;53.704;10.004;2023-06-04T13:49:54;22.80;72.40
45066;DHT22;30830;53.704;10.004;2023-06-04T13:52:19;22.70;70.60
45066;DHT22;30830;53.704;10.004;2023-06-04T13:54:45;22.60;71.40
45066;DHT22;30830;53.704;10.004;2023-06-04T13:57:11;22.50;75.30
45066;DHT22;30830;53.704;10.004;2023-06-04T13:59:37;22.70;73.70
45066;DHT22;30830;53.704;10.004;2023-06-04T14:02:03;22.80;73.10
45066;DHT22;30830;53.704;10.004;2023-06-04T14:04:28;23.00;74.60
45066;DHT22;30830;53.704;10.004;2023-06-04T14:06:54;23.00;74.00
45066;DHT22;30830;53.704;10.004;2023-06-04T14:09:20;23.10;70.60
45066;DHT22;30830;53.704;10.004;2023-06-04T14:11:46;23.10;71.00
45066;DHT22;30830;53.704;10.004;2023-06-04T14:14:16;23.00;72.90
45066;DHT22;30830;53.704;10.004;2023-06-04T14:16:43;23.20;73.50
45066;DHT22;30830;53.704;10.004;2023-06-04T14:19:08;23.20;71.40
45066;DHT22;30830;53.704;10.004;2023-06-04T14:21:34;22.90;71.80
45066;DHT22;30830;53.704;10.004;2023-06-04T14:24:01;22.90;72.20
45066;DHT22;30830;53.704;10.004;2023-06-04T14:26:27;22.90;72.10
45066;DHT22;30830;53.704;10.004;2023-06-04T14:28:53;23.00;72.80
45066;DHT22;30830;53.704;10.004;2023-06-04T14:31:18;22.90;72.10
45066;DHT22;30830;53.704;10.004;2023-06-04T14:33:44;22.90;72.90
45066;DHT22;30830;53.704;10.004;2023-06-04T14:36:09;22.80;72.40
45066;DHT22;30830;53.704;10.004;2023-06-04T14:38:35;22.90;74.20
45066;DHT22;30830;53.704;10.004;2023-06-04T14:41:00;22.80;74.20
45066;DHT22;30830;53.704;10.004;2023-06-04T14:43:26;22.80;73.30
45066;DHT22;30830;53.704;10.004;2023-06-04T14:45:52;22.80;74.50
45066;DHT22;30830;53.704;10.004;2023-06-04T14:48:17;22.90;74.00
45066;DHT22;30830;53.704;10.004;2023-06-04T14:50:43;22.70;74.40
45066;DHT22;30830;53.704;10.004;2023-06-04T14:53:08;22.80;73.40
45066;DHT22;30830;53.704;10.004;2023-06-04T14:55:35;22.60;72.30
45066;DHT22;30830;53.704;10.004;2023-06-04T14:58:01;22.60;73.90
45066;DHT22;30830;53.704;10.004;2023-06-04T15:00:28;22.50;74.70
45066;DHT22;30830;53.704;10.004;2023-06-04T15:02:54;22.70;75.20
45066;DHT22;30830;53.704;10.004;2023-06-04T15:05:19;22.70;75.20
45066;DHT22;30830;53.704;10.004;2023-06-04T15:07:45;22.60;73.80
45066;DHT22;30830;53.704;10.004;2023-06-04T15:10:10;22.50;74.50
45066;DHT22;30830;53.704;10.004;2023-06-04T15:12:36;22.50;75.10
45066;DHT22;30830;53.704;10.004;2023-06-04T15:15:07;22.20;75.00
45066;DHT22;30830;53.704;10.004;2023-06-04T15:17:34;22.30;76.60
45066;DHT22;30830;53.704;10.004;2023-06-04T15:19:59;22.20;76.50
45066;DHT22;30830;53.704;10.004;2023-06-04T15:22:25;22.20;76.50
45066;DHT22;30830;53.704;10.004;2023-06-04T15:24:52;22.20;76.30
45066;DHT22;30830;53.704;10.004;2023-06-04T15:27:18;22.20;75.90
45066;DHT22;30830;53.704;10.004;2023-06-04T15:29:44;22.20;77.60
45066;DHT22;30830;53.704;10.004;2023-06-04T15:32:10;22.10;74.80